createdAt,value
2023-04-13T00:00:36.872Z,99141.75
2023-04-13T00:03:07.029Z,99145.75
2023-04-13T00:05:35.146Z,99136.22
2023-04-13T00:08:02.847Z,99144.72
2023-04-13T00:10:36.431Z,99135.69
2023-04-13T00:13:05.177Z,99130.03
2023-04-13T00:15:34.753Z,99125.84
2023-04-13T00:18:02.102Z,99118.34
2023-04-13T00:20:29.751Z,99123.84
2023-04-13T00:22:57.048Z,99107.97
2023-04-13T00:25:24.162Z,99090.28
2023-04-13T00:27:53.064Z,99106.31
2023-04-13T00:30:20.221Z,99099.63
2023-04-13T00:32:47.434Z,99105.75
2023-04-13T00:35:25.120Z,99108.13
2023-04-13T00:37:52.915Z,99101.59
2023-04-13T00:40:20.234Z,99106.94
2023-04-13T00:42:48.373Z,99105.28
2023-04-13T00:45:16.280Z,99097.72
2023-04-13T00:47:48.117Z,99117.13
2023-04-13T00:50:18.301Z,99094.75
2023-04-13T00:52:45.949Z,99108.22
2023-04-13T00:55:14.563Z,99112.47
2023-04-13T00:57:42.024Z,99098.91
2023-04-13T01:00:09.786Z,99080.22
2023-04-13T01:02:37.404Z,99100.41
2023-04-13T01:05:06.203Z,99088.88
2023-04-13T01:07:44.965Z,99079.53
2023-04-13T01:10:12.116Z,99074.25
2023-04-13T01:12:59.291Z,99076.22
2023-04-13T01:15:28.476Z,99046.69
2023-04-13T01:17:58.140Z,99074.88
2023-04-13T01:20:27.672Z,99072.88
2023-04-13T01:22:56.389Z,99053.84
2023-04-13T01:25:28.801Z,99063.19
2023-04-13T01:28:00.246Z,99058.34
2023-04-13T01:30:32.263Z,99063.00
2023-04-13T01:33:02.132Z,99073.84
2023-04-13T01:35:30.925Z,99076.03
2023-04-13T01:37:58.967Z,99093.84
2023-04-13T01:40:29.671Z,99084.50
2023-04-13T01:42:58.004Z,99107.53
2023-04-13T01:45:35.580Z,99101.84
2023-04-13T01:48:07.264Z,99090.69
2023-04-13T01:50:54.375Z,99097.38
2023-04-13T01:53:40.118Z,99073.13
2023-04-13T01:56:09.436Z,99102.16
2023-04-13T01:58:37.784Z,99101.34
2023-04-13T02:01:12.750Z,99085.97
2023-04-13T02:03:40.110Z,99081.41
2023-04-13T02:06:07.473Z,99070.41
2023-04-13T02:08:37.073Z,99059.75
2023-04-13T02:11:04.353Z,99072.28
2023-04-13T02:13:33.187Z,99075.63
2023-04-13T02:16:01.402Z,99058.41
2023-04-13T02:18:28.619Z,99063.44
2023-04-13T02:21:01.097Z,99066.44
2023-04-13T02:23:28.654Z,99039.41
2023-04-13T02:25:55.709Z,99057.59
2023-04-13T02:28:23.865Z,99046.06
2023-04-13T02:30:51.163Z,99054.44
2023-04-13T02:33:19.219Z,99055.78
2023-04-13T02:35:47.455Z,99056.13
2023-04-13T02:38:15.623Z,99054.59
2023-04-13T02:40:46.181Z,99033.72
2023-04-13T02:43:13.478Z,99064.38
2023-04-13T02:45:42.308Z,99067.59
2023-04-13T02:48:12.831Z,99049.91
2023-04-13T02:50:40.060Z,99056.38
2023-04-13T02:53:10.780Z,99047.47
2023-04-13T02:55:40.527Z,99063.53
2023-04-13T02:58:12.076Z,99065.66
2023-04-13T03:00:40.436Z,99060.69
2023-04-13T03:03:11.944Z,99065.16
2023-04-13T03:05:44.597Z,99069.22
2023-04-13T03:08:17.438Z,99078.34
2023-04-13T03:11:06.264Z,99058.41
2023-04-13T03:13:33.887Z,99072.50
2023-04-13T03:16:00.973Z,99088.72
2023-04-13T03:18:28.396Z,99095.72
2023-04-13T03:20:56.008Z,99093.38
2023-04-13T03:23:26.870Z,99073.69
2023-04-13T03:25:54.056Z,99075.00
2023-04-13T03:28:23.236Z,99089.84
2023-04-13T03:30:51.863Z,99097.59
2023-04-13T03:33:19.077Z,99095.06
2023-04-13T03:35:46.289Z,99093.94
2023-04-13T03:38:21.914Z,99075.53
2023-04-13T03:40:49.484Z,99095.91
2023-04-13T03:43:17.264Z,99103.91
2023-04-13T03:45:50.486Z,99103.44
2023-04-13T03:48:19.288Z,99099.88
2023-04-13T03:50:47.143Z,99113.56
2023-04-13T03:53:18.301Z,99107.94
2023-04-13T03:55:46.498Z,99094.34
2023-04-13T03:58:14.119Z,99096.88
2023-04-13T04:00:41.363Z,99108.88
2023-04-13T04:03:19.089Z,99092.19
2023-04-13T04:05:56.105Z,99077.38
2023-04-13T04:08:24.496Z,99090.16
2023-04-13T04:10:55.066Z,99090.38
2023-04-13T04:13:23.432Z,99088.75
2023-04-13T04:15:54.564Z,99088.59
2023-04-13T04:18:22.139Z,99092.78
2023-04-13T04:20:49.648Z,99083.47
2023-04-13T04:23:19.825Z,99078.16
2023-04-13T04:25:55.312Z,99068.94
2023-04-13T04:28:22.371Z,99075.97
2023-04-13T04:30:55.700Z,99079.28
2023-04-13T04:33:23.953Z,99067.97
2023-04-13T04:35:51.963Z,99063.88
2023-04-13T04:38:24.274Z,99061.19
2023-04-13T04:40:57.435Z,99068.53
2023-04-13T04:43:27.098Z,99070.22
2023-04-13T04:45:58.092Z,99073.25
2023-04-13T04:48:26.784Z,99067.56
2023-04-13T04:50:58.012Z,99073.75
2023-04-13T04:53:29.264Z,99077.59
2023-04-13T04:55:56.735Z,99080.88
2023-04-13T04:58:39.238Z,99056.28
2023-04-13T05:01:06.649Z,99067.56
2023-04-13T05:03:34.441Z,99067.72
2023-04-13T05:06:17.727Z,99063.09
2023-04-13T05:08:44.982Z,99055.72
2023-04-13T05:11:12.596Z,99058.19
2023-04-13T05:13:40.413Z,99057.00
2023-04-13T05:16:17.763Z,99038.28
2023-04-13T05:18:45.872Z,99051.59
2023-04-13T05:21:22.351Z,99048.72
2023-04-13T05:23:56.471Z,99060.44
2023-04-13T05:26:25.504Z,99059.91
2023-04-13T05:28:53.074Z,99068.97
2023-04-13T05:31:24.170Z,99075.66
2023-04-13T05:33:51.559Z,99080.00
2023-04-13T05:36:18.739Z,99076.19
2023-04-13T05:38:46.718Z,99073.25
2023-04-13T05:41:15.737Z,99068.06
2023-04-13T05:43:44.433Z,99073.91
2023-04-13T05:46:11.604Z,99080.97
2023-04-13T05:48:39.349Z,99085.84
2023-04-13T05:51:08.769Z,99079.28
2023-04-13T05:53:36.676Z,99085.03
2023-04-13T05:56:03.826Z,99087.13
2023-04-13T05:58:32.128Z,99092.16
2023-04-13T06:01:25.853Z,99079.06
2023-04-13T06:03:54.251Z,99099.00
2023-04-13T06:06:21.695Z,99114.69
2023-04-13T06:08:49.486Z,99116.03
2023-04-13T06:11:16.977Z,99117.41
2023-04-13T06:13:44.661Z,99129.44
2023-04-13T06:16:11.763Z,99131.25
2023-04-13T06:18:38.856Z,99131.66
2023-04-13T06:21:06.268Z,99125.78
2023-04-13T06:23:34.290Z,99138.31
2023-04-13T06:26:06.032Z,99140.22
2023-04-13T06:28:47.546Z,99133.13
2023-04-13T06:31:15.525Z,99170.78
2023-04-13T06:33:44.529Z,99172.03
2023-04-13T06:36:12.086Z,99166.84
2023-04-13T06:38:39.881Z,99170.06
2023-04-13T06:41:11.502Z,99165.88
2023-04-13T06:43:40.786Z,99154.00
2023-04-13T06:46:16.710Z,99153.38
2023-04-13T06:48:47.717Z,99152.22
2023-04-13T06:51:16.887Z,99180.81
2023-04-13T06:53:44.026Z,99198.16
2023-04-13T06:56:11.316Z,99173.72
2023-04-13T06:58:38.456Z,99165.44
2023-04-13T07:01:06.771Z,99176.78
2023-04-13T07:03:36.369Z,99173.66
2023-04-13T07:06:05.649Z,99189.53
2023-04-13T07:08:34.074Z,99195.81
2023-04-13T07:11:02.494Z,99196.00
2023-04-13T07:13:36.494Z,99192.41
2023-04-13T07:16:05.665Z,99180.69
2023-04-13T07:18:36.100Z,99164.09
2023-04-13T07:21:03.992Z,99173.72
2023-04-13T07:23:40.055Z,99103.91
2023-04-13T07:26:12.115Z,99099.53
2023-04-13T07:28:39.432Z,99108.06
2023-04-13T07:31:07.068Z,99112.47
2023-04-13T07:33:34.937Z,99116.69
2023-04-13T07:36:02.008Z,99101.16
2023-04-13T07:38:31.643Z,99099.59
2023-04-13T07:40:58.684Z,99079.22
2023-04-13T07:43:29.792Z,99052.97
2023-04-13T07:46:00.673Z,99071.41
2023-04-13T07:48:27.850Z,99068.03
2023-04-13T07:50:57.041Z,99058.19
2023-04-13T07:53:24.560Z,99058.03
2023-04-13T07:55:52.300Z,99053.03
2023-04-13T07:58:19.390Z,99052.06
2023-04-13T08:00:47.332Z,99055.09
2023-04-13T08:03:15.146Z,99072.50
2023-04-13T08:05:44.413Z,99066.84
2023-04-13T08:08:13.746Z,99044.13
2023-04-13T08:10:42.500Z,99039.78
2023-04-13T08:13:09.557Z,99024.41
2023-04-13T08:15:36.987Z,99007.69
2023-04-13T08:18:05.331Z,98985.47
2023-04-13T08:20:33.815Z,99016.66
2023-04-13T08:23:01.321Z,99036.69
2023-04-13T08:25:28.480Z,99017.34
2023-04-13T08:27:56.354Z,99003.50
2023-04-13T08:30:23.447Z,99019.81
2023-04-13T08:32:58.697Z,98965.22
2023-04-13T08:35:26.637Z,98979.66
2023-04-13T08:37:56.645Z,98908.34
2023-04-13T08:40:24.280Z,98818.28
2023-04-13T08:42:54.755Z,98798.63
2023-04-13T08:45:22.403Z,98727.19
2023-04-13T08:47:50.614Z,98656.03
2023-04-13T08:50:22.161Z,98605.00
2023-04-13T08:52:54.209Z,98631.84
2023-04-13T08:55:22.718Z,98601.72
2023-04-13T08:57:53.150Z,98547.63
2023-04-13T09:00:21.943Z,98463.47
2023-04-13T09:03:03.909Z,98389.09
2023-04-13T09:05:38.260Z,98374.44
2023-04-13T09:08:08.024Z,98441.31
2023-04-13T09:10:37.553Z,98432.56
2023-04-13T09:13:05.808Z,98373.06
2023-04-13T09:15:32.971Z,98296.19
2023-04-13T09:18:19.233Z,98283.16
2023-04-13T09:20:58.772Z,98270.94
2023-04-13T09:23:26.047Z,98202.59
2023-04-13T09:26:05.935Z,98164.81
2023-04-13T09:28:33.083Z,98177.22
2023-04-13T09:31:04.490Z,98124.75
2023-04-13T09:33:36.038Z,98112.88
2023-04-13T09:36:09.980Z,98016.13
2023-04-13T09:38:37.076Z,98026.88
2023-04-13T09:41:04.202Z,97995.34
2023-04-13T09:43:34.948Z,97965.25
2023-04-13T09:46:02.208Z,97889.69
2023-04-13T09:48:49.458Z,97883.13
2023-04-13T09:51:21.817Z,97820.31
2023-04-13T09:53:50.099Z,97793.34
2023-04-13T09:56:17.498Z,97779.94
2023-04-13T09:58:45.633Z,97707.66
2023-04-13T10:01:15.953Z,97689.13
2023-04-13T10:03:43.875Z,97638.22
2023-04-13T10:06:11.019Z,97621.25
2023-04-13T10:08:39.208Z,97607.19
2023-04-13T10:11:08.580Z,97565.78
2023-04-13T10:13:43.021Z,97560.63
2023-04-13T10:16:28.780Z,97581.06
2023-04-13T10:19:11.030Z,97501.88
2023-04-13T10:21:39.994Z,97497.13
2023-04-13T10:24:12.079Z,97485.38
2023-04-13T10:26:40.995Z,97416.97
2023-04-13T10:29:09.177Z,97309.50
2023-04-13T10:31:38.005Z,97207.88
2023-04-13T10:34:08.514Z,97189.22
2023-04-13T10:36:37.816Z,97143.38
2023-04-13T10:39:05.029Z,97084.75
2023-04-13T10:41:32.171Z,96952.19
2023-04-13T10:44:03.539Z,96959.56
2023-04-13T10:46:31.355Z,96978.72
2023-04-13T10:49:00.227Z,96971.22
2023-04-13T10:51:38.248Z,97007.34
2023-04-13T10:54:06.340Z,97006.41
2023-04-13T10:56:33.938Z,96932.22
2023-04-13T10:59:01.192Z,96935.91
2023-04-13T11:01:30.646Z,96875.34
2023-04-13T11:04:05.299Z,96856.91
2023-04-13T11:06:40.072Z,96828.13
2023-04-13T11:09:08.433Z,96758.84
2023-04-13T11:11:36.679Z,96722.75
2023-04-13T11:14:03.989Z,96635.81
2023-04-13T11:16:31.356Z,96667.47
2023-04-13T11:19:02.538Z,96679.91
2023-04-13T11:21:31.724Z,96646.41
2023-04-13T11:24:02.618Z,96672.00
2023-04-13T11:26:34.296Z,96673.81
2023-04-13T11:29:02.434Z,96677.25
2023-04-13T11:31:39.344Z,96584.81
2023-04-13T11:34:06.859Z,96558.13
2023-04-13T11:36:34.082Z,96561.47
2023-04-13T11:39:05.492Z,96590.69
2023-04-13T11:41:33.545Z,96540.44
2023-04-13T11:44:01.540Z,96561.88
2023-04-13T11:46:28.901Z,96465.28
2023-04-13T11:48:56.734Z,96461.72
2023-04-13T11:51:24.474Z,96446.38
2023-04-13T11:53:52.020Z,96377.97
2023-04-13T11:56:19.370Z,96309.06
2023-04-13T11:58:49.720Z,96366.28
2023-04-13T12:01:25.170Z,96293.63
2023-04-13T12:04:04.690Z,96204.75
2023-04-13T12:06:42.078Z,96129.47
2023-04-13T12:09:15.732Z,96052.44
2023-04-13T12:11:49.720Z,95985.97
2023-04-13T12:19:26.736Z,95897.16
2023-04-13T12:21:58.002Z,95997.06
2023-04-13T12:24:38.562Z,96004.31
2023-04-13T12:29:39.638Z,96012.69
2023-04-13T12:32:17.237Z,95967.00
2023-04-13T12:34:44.931Z,95941.88
2023-04-13T12:37:12.198Z,95883.03
2023-04-13T12:39:39.384Z,95947.09
2023-04-13T12:42:06.574Z,95962.97
2023-04-13T12:44:34.491Z,95927.63
2023-04-13T12:47:02.388Z,95830.94
2023-04-13T12:49:30.017Z,95890.59
2023-04-13T12:51:57.303Z,95889.09
2023-04-13T12:54:24.524Z,95871.72
2023-04-13T12:56:52.175Z,95873.56
2023-04-13T12:59:21.852Z,95834.00
2023-04-13T13:01:49.216Z,95860.41
2023-04-13T13:04:16.620Z,95843.78
2023-04-13T13:06:43.696Z,95834.41
2023-04-13T13:09:10.850Z,95853.19
2023-04-13T13:11:38.067Z,95791.44
2023-04-13T13:14:05.701Z,95787.63
2023-04-13T13:16:32.863Z,95765.34
2023-04-13T13:18:59.968Z,95773.13
2023-04-13T13:21:27.021Z,95774.50
2023-04-13T13:23:54.066Z,95752.75
2023-04-13T13:26:24.496Z,95761.94
2023-04-13T13:28:53.401Z,95787.09
2023-04-13T13:31:20.914Z,95767.50
2023-04-13T13:33:48.143Z,95756.50
2023-04-13T13:36:15.426Z,95815.81
2023-04-13T13:38:43.390Z,95797.28
2023-04-13T13:41:10.885Z,95798.03
2023-04-13T13:43:38.483Z,95826.41
2023-04-13T13:46:06.093Z,95833.72
2023-04-13T13:48:35.459Z,95780.09
2023-04-13T13:51:20.820Z,95766.59
2023-04-13T13:53:48.402Z,95784.66
2023-04-13T13:56:15.600Z,95810.59
2023-04-13T13:58:42.642Z,95800.09
2023-04-13T14:01:10.171Z,95812.78
2023-04-13T14:03:37.492Z,95809.81
2023-04-13T14:06:04.773Z,95851.09
2023-04-13T14:08:31.902Z,95842.13
2023-04-13T14:11:00.845Z,95837.28
2023-04-13T14:13:27.902Z,95869.13
2023-04-13T14:15:55.701Z,95890.22
2023-04-13T14:18:25.870Z,95938.38
2023-04-13T14:20:53.324Z,95980.19
2023-04-13T14:23:20.399Z,96008.81
2023-04-13T14:25:47.441Z,96018.63
2023-04-13T14:28:14.698Z,96048.78
2023-04-13T14:30:42.106Z,96068.94
2023-04-13T14:33:09.363Z,96078.91
2023-04-13T14:35:38.766Z,96070.69
2023-04-13T14:38:05.833Z,96109.53
2023-04-13T14:40:33.445Z,96119.81
2023-04-13T14:43:00.751Z,96117.19
2023-04-13T14:45:27.795Z,96148.84
2023-04-13T14:47:54.920Z,96155.53
2023-04-13T14:50:22.343Z,96196.91
2023-04-13T14:52:52.526Z,96197.84
2023-04-13T14:55:19.763Z,96184.78
2023-04-13T14:57:47.256Z,96190.53
2023-04-13T15:00:18.025Z,96179.81
2023-04-13T15:02:45.342Z,96198.31
2023-04-13T15:05:12.766Z,96193.44
2023-04-13T15:07:40.898Z,96185.59
2023-04-13T15:10:08.548Z,96227.84
2023-04-13T15:12:35.726Z,96235.81
2023-04-13T15:15:02.925Z,96254.31
2023-04-13T15:17:30.750Z,96253.06
2023-04-13T15:19:57.907Z,96277.34
2023-04-13T15:22:25.014Z,96293.97
2023-04-13T15:24:52.045Z,96290.66
2023-04-13T15:27:19.188Z,96241.69
2023-04-13T15:29:46.330Z,96222.03
2023-04-13T15:32:13.511Z,96230.97
2023-04-13T15:34:40.792Z,96269.22
2023-04-13T15:37:07.839Z,96294.63
2023-04-13T15:39:34.950Z,96305.41
2023-04-13T15:42:02.224Z,96276.59
2023-04-13T15:44:29.403Z,96273.78
2023-04-13T15:46:56.546Z,96320.03
2023-04-13T15:49:23.645Z,96322.28
2023-04-13T15:51:50.789Z,96326.53
2023-04-13T15:54:17.829Z,96323.63
2023-04-13T15:56:44.950Z,96287.44
2023-04-13T15:59:12.082Z,96285.63
2023-04-13T16:01:46.123Z,96278.19
2023-04-13T16:04:13.650Z,96273.69
2023-04-13T16:06:41.958Z,96336.25
2023-04-13T16:09:12.389Z,96357.28
2023-04-13T16:11:39.582Z,96360.19
2023-04-13T16:14:09.362Z,96377.94
2023-04-13T16:16:44.390Z,96361.09
2023-04-13T16:19:12.280Z,96390.91
2023-04-13T16:21:45.487Z,96418.63
2023-04-13T16:24:12.732Z,96447.59
2023-04-13T16:26:39.932Z,96484.69
2023-04-13T16:29:08.221Z,96499.19
2023-04-13T16:31:35.550Z,96497.38
2023-04-13T16:34:11.654Z,96515.91
2023-04-13T16:36:50.077Z,96523.00
2023-04-13T16:39:17.388Z,96525.00
2023-04-13T16:41:44.608Z,96533.59
2023-04-13T16:44:11.698Z,96577.72
2023-04-13T16:46:38.876Z,96628.91
2023-04-13T16:49:06.211Z,96664.25
2023-04-13T16:51:33.277Z,96666.00
2023-04-13T16:54:00.681Z,96708.78
2023-04-13T16:56:30.754Z,96730.28
2023-04-13T16:58:58.510Z,96785.22
2023-04-13T17:01:26.433Z,96820.22
2023-04-13T17:03:54.001Z,96857.16
2023-04-13T17:06:21.444Z,96878.44
2023-04-13T17:08:48.717Z,96906.88
2023-04-13T17:11:15.904Z,96951.28
2023-04-13T17:13:43.084Z,96997.38
2023-04-13T17:16:10.415Z,97026.53
2023-04-13T17:18:37.798Z,97054.59
2023-04-13T17:21:05.008Z,97091.25
2023-04-13T17:23:32.103Z,97159.22
2023-04-13T17:25:59.276Z,97162.38
2023-04-13T17:28:26.361Z,97168.59
2023-04-13T17:30:53.990Z,97218.97
2023-04-13T17:33:21.145Z,97271.34
2023-04-13T17:35:52.186Z,97292.72
2023-04-13T17:38:19.230Z,97336.22
2023-04-13T17:40:46.368Z,97342.41
2023-04-13T17:43:14.115Z,97367.06
2023-04-13T17:45:41.527Z,97397.44
2023-04-13T17:48:08.733Z,97388.88
2023-04-13T17:50:35.945Z,97431.63
2023-04-13T17:53:04.829Z,97446.13
2023-04-13T17:55:33.271Z,97427.91
2023-04-13T17:58:00.399Z,97445.56
2023-04-13T18:00:28.934Z,97452.97
2023-04-13T18:02:56.252Z,97458.31
2023-04-13T18:05:24.066Z,97445.19
2023-04-13T18:07:51.331Z,97475.56
2023-04-13T18:10:18.417Z,97499.81
2023-04-13T18:12:45.929Z,97519.16
2023-04-13T18:15:13.097Z,97546.69
2023-04-13T18:17:41.236Z,97565.59
2023-04-13T18:20:09.133Z,97575.88
2023-04-13T18:22:36.975Z,97581.44
2023-04-13T18:25:04.249Z,97583.28
2023-04-13T18:27:31.723Z,97593.34
2023-04-13T18:30:01.900Z,97619.84
2023-04-13T18:32:29.198Z,97604.22
2023-04-13T18:34:56.453Z,97608.53
2023-04-13T18:37:23.552Z,97616.56
2023-04-13T18:39:52.347Z,97617.38
2023-04-13T18:42:19.491Z,97628.47
2023-04-13T18:44:46.693Z,97631.72
2023-04-13T18:47:13.775Z,97655.97
2023-04-13T18:49:40.989Z,97666.66
2023-04-13T18:52:08.169Z,97689.47
2023-04-13T18:54:35.338Z,97704.06
2023-04-13T18:57:02.503Z,97735.94
2023-04-13T18:59:29.610Z,97738.75
2023-04-13T19:01:56.739Z,97755.19
2023-04-13T19:04:24.381Z,97782.13
2023-04-13T19:06:52.200Z,97773.09
2023-04-13T19:09:19.318Z,97778.22
2023-04-13T19:11:53.257Z,97792.19
2023-04-13T19:14:20.403Z,97795.69
2023-04-13T19:16:47.695Z,97802.28
2023-04-13T19:19:15.585Z,97794.88
2023-04-13T19:21:42.855Z,97816.22
2023-04-13T19:24:13.070Z,97811.53
2023-04-13T19:26:40.800Z,97819.53
2023-04-13T19:29:09.455Z,97821.50
2023-04-13T19:31:37.983Z,97835.88
2023-04-13T19:34:05.528Z,97863.22
2023-04-13T19:36:32.859Z,97877.53
2023-04-13T19:41:32.470Z,97924.81
2023-04-13T19:44:00.465Z,97946.38
2023-04-13T19:46:28.671Z,97967.75
2023-04-13T19:48:59.204Z,97974.94
2023-04-13T19:51:27.292Z,97982.56
2023-04-13T19:53:55.358Z,98003.50
2023-04-13T19:56:23.858Z,98027.91
2023-04-13T19:58:51.110Z,98042.28
2023-04-13T20:01:18.260Z,98057.66
2023-04-13T20:03:45.902Z,98065.41
2023-04-13T20:06:13.383Z,98074.19
2023-04-13T20:08:42.585Z,98104.75
2023-04-13T20:11:09.987Z,98133.03
2023-04-13T20:13:37.721Z,98175.00
2023-04-13T20:16:05.064Z,98198.09
2023-04-13T20:18:32.343Z,98190.66
2023-04-13T20:21:02.907Z,98209.59
2023-04-13T20:23:31.436Z,98236.56
2023-04-13T20:25:58.658Z,98244.78
2023-04-13T20:28:25.962Z,98236.97
2023-04-13T20:30:53.083Z,98242.47
2023-04-13T20:33:20.399Z,98262.56
2023-04-13T20:35:47.474Z,98276.78
2023-04-13T20:38:17.609Z,98287.25
2023-04-13T20:40:45.657Z,98297.94
2023-04-13T20:43:15.463Z,98318.66
2023-04-13T20:45:45.408Z,98314.56
2023-04-13T20:50:47.938Z,98350.94
2023-04-13T20:53:17.270Z,98368.19
2023-04-13T20:55:44.356Z,98405.81
2023-04-13T20:58:11.484Z,98415.91
2023-04-13T21:00:38.726Z,98413.06
2023-04-13T21:03:08.928Z,98383.03
2023-04-13T21:05:38.558Z,98399.63
2023-04-13T21:08:05.801Z,98415.16
2023-04-13T21:10:33.043Z,98438.66
2023-04-13T21:13:01.682Z,98461.56
2023-04-13T21:15:31.861Z,98472.97
2023-04-13T21:17:59.088Z,98493.00
2023-04-13T21:20:26.437Z,98513.81
2023-04-13T21:22:53.491Z,98528.81
2023-04-13T21:25:20.531Z,98543.34
2023-04-13T21:27:47.641Z,98545.03
2023-04-13T21:30:15.048Z,98545.44
2023-04-13T21:32:42.342Z,98577.78
2023-04-13T21:35:09.708Z,98589.63
2023-04-13T21:37:36.830Z,98601.75
2023-04-13T21:40:04.532Z,98586.84
2023-04-13T21:42:31.648Z,98629.16
2023-04-13T21:44:58.729Z,98655.19
2023-04-13T21:47:25.810Z,98713.50
2023-04-13T21:49:53.036Z,98737.84
2023-04-13T21:52:20.185Z,98745.16
2023-04-13T21:54:47.745Z,98772.81
2023-04-13T21:57:15.896Z,98896.81
2023-04-13T21:59:42.999Z,98915.78
2023-04-13T22:02:10.163Z,98929.44
2023-04-13T22:04:37.398Z,98975.78
2023-04-13T22:07:04.524Z,98983.09
2023-04-13T22:09:31.614Z,99000.78
2023-04-13T22:11:58.798Z,99009.72
2023-04-13T22:14:25.994Z,99019.41
2023-04-13T22:16:54.013Z,99022.91
2023-04-13T22:19:21.145Z,99037.06
2023-04-13T22:21:48.162Z,99046.25
2023-04-13T22:24:16.096Z,99056.72
2023-04-13T22:26:43.245Z,99071.53
2023-04-13T22:29:10.429Z,99085.06
2023-04-13T22:31:37.503Z,99088.72
2023-04-13T22:34:04.686Z,99089.84
2023-04-13T22:36:32.130Z,99093.00
2023-04-13T22:38:59.378Z,99100.31
2023-04-13T22:41:26.750Z,99105.09
2023-04-13T22:43:53.887Z,99128.94
2023-04-13T22:46:21.229Z,99121.94
2023-04-13T22:48:48.759Z,99135.94
2023-04-13T22:51:16.313Z,99147.28
2023-04-13T22:53:43.356Z,99151.25
2023-04-13T22:56:10.447Z,99135.44
2023-04-13T22:58:37.525Z,99132.38
2023-04-13T23:01:04.948Z,99135.22
2023-04-13T23:03:32.097Z,99150.59
2023-04-13T23:05:59.210Z,99157.34
2023-04-13T23:08:26.302Z,99168.00
2023-04-13T23:10:53.340Z,99167.13
2023-04-13T23:13:20.378Z,99176.19
2023-04-13T23:15:47.440Z,99222.09
2023-04-13T23:18:14.478Z,99225.19
2023-04-13T23:20:41.658Z,99237.69
2023-04-13T23:23:08.693Z,99243.34
2023-04-13T23:25:36.052Z,99254.00
2023-04-13T23:28:03.098Z,99249.25
2023-04-13T23:30:30.208Z,99259.84
2023-04-13T23:32:57.356Z,99271.06
2023-04-13T23:35:24.470Z,99271.34
2023-04-13T23:37:51.578Z,99281.06
2023-04-13T23:40:18.732Z,99289.19
2023-04-13T23:42:45.941Z,99290.47
2023-04-13T23:45:13.109Z,99290.22
2023-04-13T23:47:40.666Z,99293.88
2023-04-13T23:50:07.931Z,99297.66
2023-04-13T23:52:35.041Z,99298.78
2023-04-13T23:55:02.154Z,99297.50
2023-04-13T23:57:33.345Z,99294.47
